Terminal Aerodrome Forecast
Issued by NWS Central Illinois

Home | Current Version | Previous Version | Text Only | Print | Product List | Glossary On
Versions: 1 2 3 4 5 6 7 8 9 10 11 12 13 14 15 16 17
346
FTUS43 KILX 082331
TAFSPI
TAF
KSPI 082331Z 0900/0924 30010KT P6SM BKN030
      TEMPO 0900/0902 SCT030
     FM091400 30008KT P6SM SCT035=

USA.gov is the U.S. government's official web portal to all federal, state and local government web resources and services.